»·PEaware :: DCM2499 KSBP-F70

DCM2499 :: KSBP-F70

FLIGHT INFORMATION

Flight Status: Arrived
Operator: Unknown
More flights by this operator :: More flights under this callsign
Pilot: Alec D. (17934)
Aircraft: GATES LEARJET LEARJET 35/36
(LJ35)
More flights by this aircraft type
Origin: KSBP San Luis Co Regl
United States
Destination: F70 French Valley
United States
More flights between these airports :: More routes between these airports
Route: +RZS PMD V137 HITOP PDZ
File this flight plan on PilotEdge
Remarks:
Altitude:
(Current/Filed)
21,000ft
Speed:
(Current/Filed)
410kts
Departed: 05-Aug-18 08:41 PM
Arrived: 05-Aug-18 09:29 PM
Distance/Time
Traveled:
200nm/0:48
Distance/Time
To Go:
Arrived

Flight Plot

Page will automatically refresh every two minutes.

Flight plan parsing failed; only flown route is shown


Map Options




Map Legend


Flown Route
Filed Route
Departure Airport
Arrival Airport
Navaid (VOR, NDB)
Fix

Horizontal Profiles

Position Reports

Time Latitude Longitude Heading Altitude Ground
Speed
05-Aug-18 20:25 35.237895 -120.639041 356 215ft 0kts
05-Aug-18 20:26 35.237895 -120.639041 356 215ft 0kts
05-Aug-18 20:27 35.237895 -120.639041 356 215ft 0kts
05-Aug-18 20:28 35.237895 -120.639041 356 215ft 0kts
05-Aug-18 20:29 35.237895 -120.639041 356 215ft 0kts
05-Aug-18 20:30 35.237897 -120.639041 356 215ft 0kts
05-Aug-18 20:31 35.237900 -120.639042 356 215ft 0kts
05-Aug-18 20:32 35.237904 -120.639042 356 215ft 0kts
05-Aug-18 20:33 35.237907 -120.639042 356 215ft 0kts
05-Aug-18 20:34 35.237910 -120.639042 356 215ft 0kts
05-Aug-18 20:35 35.237913 -120.639043 356 215ft 0kts
05-Aug-18 20:36 35.237916 -120.639043 356 215ft 0kts
05-Aug-18 20:37 35.237919 -120.639043 356 215ft 0kts
05-Aug-18 20:38 35.237922 -120.639043 356 215ft 0kts
05-Aug-18 20:39 35.236860 -120.638208 127 215ft 16kts
05-Aug-18 20:40 35.235020 -120.634908 122 215ft 7kts
05-Aug-18 20:41 35.233023 -120.632813 212 215ft 8kts
05-Aug-18 20:42 35.239935 -120.645180 307 587ft 141kts
05-Aug-18 20:43 35.269478 -120.696894 304 2917ft 243kts
05-Aug-18 20:44 35.303570 -120.765519 303 4863ft 232kts
05-Aug-18 20:45 35.299197 -120.841975 218 5841ft 277kts
05-Aug-18 20:46 35.230574 -120.824400 124 7863ft 276kts
05-Aug-18 20:47 35.181354 -120.752080 129 8427ft 275kts
05-Aug-18 20:48 35.127845 -120.673871 130 10772ft 327kts
05-Aug-18 20:49 35.067341 -120.584548 131 14301ft 348kts
05-Aug-18 20:50 35.004340 -120.491695 132 17661ft 362kts
05-Aug-18 20:51 34.938621 -120.395098 132 20497ft 378kts
05-Aug-18 20:52 34.869568 -120.293867 132 20974ft 392kts
05-Aug-18 20:53 34.799408 -120.191287 132 20979ft 396kts
05-Aug-18 20:54 34.728350 -120.087717 132 20978ft 399kts
05-Aug-18 20:55 34.657061 -119.984142 132 20957ft 401kts
05-Aug-18 20:56 34.585380 -119.880301 132 20940ft 402kts
05-Aug-18 20:57 34.515514 -119.773919 120 20910ft 406kts
05-Aug-18 20:58 34.487879 -119.641017 103 20912ft 409kts
05-Aug-18 20:59 34.464843 -119.506009 103 20917ft 409kts
05-Aug-18 21:00 34.441716 -119.370753 103 20925ft 409kts
05-Aug-18 21:01 34.418534 -119.235964 103 20927ft 409kts
05-Aug-18 21:02 34.395098 -119.100627 103 20926ft 410kts
05-Aug-18 21:03 34.405316 -118.965873 70 20937ft 413kts
05-Aug-18 21:04 34.417508 -118.830112 97 20980ft 410kts
05-Aug-18 21:05 34.405829 -118.692952 96 20981ft 410kts
05-Aug-18 21:06 34.395441 -118.555279 95 20963ft 411kts
05-Aug-18 21:07 34.385136 -118.417541 95 20937ft 411kts
05-Aug-18 21:08 34.374696 -118.279468 96 20958ft 410kts
05-Aug-18 21:09 34.364102 -118.141487 96 20944ft 411kts
05-Aug-18 21:10 34.353439 -118.004495 96 20713ft 402kts
05-Aug-18 21:11 34.343069 -117.873146 96 18619ft 382kts
05-Aug-18 21:12 34.332990 -117.747308 96 16513ft 368kts
05-Aug-18 21:13 34.323183 -117.626321 96 14415ft 350kts
05-Aug-18 21:14 34.313963 -117.513934 96 13057ft 316kts
05-Aug-18 21:15 34.268711 -117.439461 145 13034ft 266kts
05-Aug-18 21:16 34.231255 -117.363996 120 11662ft 263kts
05-Aug-18 21:17 34.194255 -117.288703 121 10065ft 258kts
05-Aug-18 21:18 34.154318 -117.219819 144 9051ft 235kts
05-Aug-18 21:19 34.104599 -117.172337 142 9035ft 232kts
05-Aug-18 21:20 34.054244 -117.123422 142 9042ft 228kts
05-Aug-18 21:21 34.005089 -117.075878 142 9061ft 225kts
05-Aug-18 21:22 33.951302 -117.050849 189 8911ft 211kts
05-Aug-18 21:23 33.889834 -117.057849 186 7351ft 223kts
05-Aug-18 21:24 33.828725 -117.064223 186 5640ft 218kts
05-Aug-18 21:25 33.770836 -117.076600 192 4068ft 203kts
05-Aug-18 21:26 33.719194 -117.090262 193 3870ft 190kts
05-Aug-18 21:27 33.674568 -117.102011 193 3195ft 150kts
05-Aug-18 21:28 33.633143 -117.112936 193 2394ft 151kts
05-Aug-18 21:29 33.596269 -117.122661 193 1639ft 129kts
05-Aug-18 21:30 33.573925 -117.128544 191 1353ft 21kts
05-Aug-18 21:31 33.570099 -117.129990 284 1353ft 3kts
05-Aug-18 21:32 33.571835 -117.129909 13 1353ft 4kts
05-Aug-18 21:33 33.574575 -117.129953 283 1353ft 12kts
05-Aug-18 21:34 33.574730 -117.130754 282 1353ft 0kts
05-Aug-18 21:35 33.574730 -117.130754 282 1353ft 0kts
05-Aug-18 21:36 33.574730 -117.130754 282 1353ft 0kts

Navigation Log

Ident Type
Flight plan parsing failed, navigation log unavailable